CheckWX is a tool to help pilots better visualize weather data.  It is not intended as a substitute for an official pre-flight weather briefing.

12:22:07 UTC

WSSS METAR
Singapore Changi International Airport
Singapore, Singapore
Current

22 mins ago

WSSS 221200Z 16010KT 9999 FEW018 BKN300 29/25 Q1010 NOSIG
Observed
Aug-22 @ 12:00 UTC
Wind
  • 160° at 10 KTS
Visibility
10,000+ meters
Flight Rules
VFR
Cloud Levels
  • Few at 1,800' AGL
  • Broken at 30,000' AGL
Temperature
29°C / 84°F
Dewpoint
25°C / 77°F
Heat Index
34°C / 94°F
Humidity
79%
Altimeter
29.82" Hg
Pressure
1009.92 hPa
Previous

52 mins ago

WSSS 221130Z 15009KT 9999 FEW020 BKN300 29/25 Q1010 NOSIG
Observed
Aug-22 @ 11:30 UTC
Wind
  • 150° at 9 KTS
Visibility
10,000+ meters
Flight Rules
VFR
Cloud Levels
  • Few at 2,000' AGL
  • Broken at 30,000' AGL
Temperature
29°C / 84°F
Dewpoint
25°C / 77°F
Heat Index
34°C / 94°F
Humidity
79%
Altimeter
29.82" Hg
Pressure
1009.92 hPa
Previous

1 hour ago

WSSS 221100Z 16010KT 9999 FEW020TCU BKN300 29/24 Q1009 NOSIG
Observed
Aug-22 @ 11:00 UTC
Wind
  • 160° at 10 KTS
Visibility
10,000+ meters
Flight Rules
VFR
Cloud Levels
  • Few at 2,000' AGL
  • Broken at 30,000' AGL
Temperature
29°C / 84°F
Dewpoint
24°C / 75°F
Heat Index
33°C / 92°F
Humidity
74%
Altimeter
29.79" Hg
Pressure
1008.92 hPa